sensor_id;sensor_type;location;lat;lon;timestamp;P1;durP1;ratioP1;P2;durP2;ratioP2
63693;SDS011;49839;51.798;10.954;2024-03-02T00:01:37;21.88;;;10.25;;
63693;SDS011;49839;51.798;10.954;2024-03-02T00:04:06;17.25;;;10.38;;
63693;SDS011;49839;51.798;10.954;2024-03-02T00:06:34;18.27;;;10.68;;
63693;SDS011;49839;51.798;10.954;2024-03-02T00:09:02;20.05;;;10.98;;
63693;SDS011;49839;51.798;10.954;2024-03-02T00:11:29;17.35;;;11.05;;
63693;SDS011;49839;51.798;10.954;2024-03-02T00:13:57;19.50;;;11.10;;
63693;SDS011;49839;51.798;10.954;2024-03-02T00:16:25;18.33;;;10.50;;
63693;SDS011;49839;51.798;10.954;2024-03-02T00:18:56;17.70;;;10.80;;
63693;SDS011;49839;51.798;10.954;2024-03-02T00:21:29;16.92;;;10.40;;
63693;SDS011;49839;51.798;10.954;2024-03-02T00:23:57;20.75;;;10.88;;
63693;SDS011;49839;51.798;10.954;2024-03-02T00:26:25;19.60;;;10.85;;
63693;SDS011;49839;51.798;10.954;2024-03-02T00:28:53;17.30;;;9.95;;
63693;SDS011;49839;51.798;10.954;2024-03-02T00:31:23;21.40;;;11.50;;
63693;SDS011;49839;51.798;10.954;2024-03-02T00:33:51;19.80;;;11.13;;
63693;SDS011;49839;51.798;10.954;2024-03-02T00:36:22;18.60;;;10.90;;
63693;SDS011;49839;51.798;10.954;2024-03-02T00:38:51;20.95;;;11.77;;
63693;SDS011;49839;51.798;10.954;2024-03-02T00:41:20;19.23;;;10.90;;
63693;SDS011;49839;51.798;10.954;2024-03-02T00:43:50;19.55;;;11.27;;
63693;SDS011;49839;51.798;10.954;2024-03-02T00:46:20;20.02;;;11.45;;
63693;SDS011;49839;51.798;10.954;2024-03-02T00:48:48;18.65;;;10.38;;
63693;SDS011;49839;51.798;10.954;2024-03-02T00:51:18;22.23;;;11.32;;
63693;SDS011;49839;51.798;10.954;2024-03-02T00:53:45;22.30;;;11.57;;
63693;SDS011;49839;51.798;10.954;2024-03-02T00:56:14;18.67;;;11.07;;
63693;SDS011;49839;51.798;10.954;2024-03-02T00:58:42;22.25;;;11.68;;
63693;SDS011;49839;51.798;10.954;2024-03-02T01:01:09;18.25;;;11.38;;
63693;SDS011;49839;51.798;10.954;2024-03-02T01:03:37;21.08;;;11.05;;
63693;SDS011;49839;51.798;10.954;2024-03-02T01:06:04;20.85;;;11.15;;
63693;SDS011;49839;51.798;10.954;2024-03-02T01:08:33;19.83;;;12.10;;
63693;SDS011;49839;51.798;10.954;2024-03-02T01:11:01;21.00;;;12.10;;
63693;SDS011;49839;51.798;10.954;2024-03-02T01:13:30;21.20;;;11.45;;
63693;SDS011;49839;51.798;10.954;2024-03-02T01:15:57;19.02;;;11.10;;
63693;SDS011;49839;51.798;10.954;2024-03-02T01:18:25;23.42;;;12.43;;
63693;SDS011;49839;51.798;10.954;2024-03-02T01:20:53;17.92;;;10.75;;
63693;SDS011;49839;51.798;10.954;2024-03-02T01:23:22;25.40;;;12.17;;
63693;SDS011;49839;51.798;10.954;2024-03-02T01:25:49;20.50;;;12.00;;
63693;SDS011;49839;51.798;10.954;2024-03-02T01:28:18;20.98;;;11.82;;
63693;SDS011;49839;51.798;10.954;2024-03-02T01:30:48;20.70;;;11.25;;
63693;SDS011;49839;51.798;10.954;2024-03-02T01:33:16;19.75;;;11.68;;
63693;SDS011;49839;51.798;10.954;2024-03-02T01:35:44;18.70;;;10.70;;
63693;SDS011;49839;51.798;10.954;2024-03-02T01:38:11;22.98;;;12.65;;
63693;SDS011;49839;51.798;10.954;2024-03-02T01:40:38;21.98;;;11.45;;
63693;SDS011;49839;51.798;10.954;2024-03-02T01:43:06;23.25;;;12.38;;
63693;SDS011;49839;51.798;10.954;2024-03-02T01:45:33;19.52;;;11.65;;
63693;SDS011;49839;51.798;10.954;2024-03-02T01:48:03;21.45;;;12.05;;
63693;SDS011;49839;51.798;10.954;2024-03-02T01:50:31;23.52;;;12.73;;
63693;SDS011;49839;51.798;10.954;2024-03-02T01:52:59;22.35;;;12.30;;
63693;SDS011;49839;51.798;10.954;2024-03-02T01:55:27;22.73;;;12.35;;
63693;SDS011;49839;51.798;10.954;2024-03-02T01:57:56;22.27;;;11.90;;
63693;SDS011;49839;51.798;10.954;2024-03-02T02:00:24;20.92;;;12.65;;
63693;SDS011;49839;51.798;10.954;2024-03-02T02:02:52;21.45;;;12.70;;
63693;SDS011;49839;51.798;10.954;2024-03-02T02:05:21;23.23;;;12.18;;
63693;SDS011;49839;51.798;10.954;2024-03-02T02:07:49;22.47;;;12.60;;
63693;SDS011;49839;51.798;10.954;2024-03-02T02:10:16;21.88;;;12.88;;
63693;SDS011;49839;51.798;10.954;2024-03-02T02:12:44;24.77;;;12.25;;
63693;SDS011;49839;51.798;10.954;2024-03-02T02:15:24;19.42;;;11.70;;
63693;SDS011;49839;51.798;10.954;2024-03-02T02:17:52;19.73;;;12.38;;
63693;SDS011;49839;51.798;10.954;2024-03-02T02:20:19;23.67;;;13.48;;
63693;SDS011;49839;51.798;10.954;2024-03-02T02:22:57;20.30;;;12.43;;
63693;SDS011;49839;51.798;10.954;2024-03-02T02:25:25;23.42;;;13.25;;
63693;SDS011;49839;51.798;10.954;2024-03-02T02:27:53;20.73;;;12.27;;
63693;SDS011;49839;51.798;10.954;2024-03-02T02:30:21;23.35;;;13.20;;
63693;SDS011;49839;51.798;10.954;2024-03-02T02:32:49;20.90;;;12.13;;
63693;SDS011;49839;51.798;10.954;2024-03-02T02:35:17;22.20;;;12.65;;
63693;SDS011;49839;51.798;10.954;2024-03-02T02:37:44;21.50;;;13.00;;
63693;SDS011;49839;51.798;10.954;2024-03-02T02:40:14;27.38;;;13.43;;
63693;SDS011;49839;51.798;10.954;2024-03-02T02:42:42;21.42;;;12.75;;
63693;SDS011;49839;51.798;10.954;2024-03-02T02:45:09;20.08;;;11.57;;
63693;SDS011;49839;51.798;10.954;2024-03-02T02:47:37;21.77;;;12.40;;
63693;SDS011;49839;51.798;10.954;2024-03-02T02:50:06;20.85;;;12.30;;
63693;SDS011;49839;51.798;10.954;2024-03-02T02:52:34;24.70;;;13.02;;
63693;SDS011;49839;51.798;10.954;2024-03-02T02:55:03;23.50;;;13.20;;
63693;SDS011;49839;51.798;10.954;2024-03-02T02:57:32;22.65;;;13.32;;
63693;SDS011;49839;51.798;10.954;2024-03-02T03:00:02;22.80;;;12.95;;
63693;SDS011;49839;51.798;10.954;2024-03-02T03:02:37;18.95;;;11.85;;
63693;SDS011;49839;51.798;10.954;2024-03-02T03:05:05;22.80;;;12.50;;
63693;SDS011;49839;51.798;10.954;2024-03-02T03:07:33;19.75;;;12.05;;
63693;SDS011;49839;51.798;10.954;2024-03-02T03:10:02;20.92;;;12.95;;
63693;SDS011;49839;51.798;10.954;2024-03-02T03:12:30;22.13;;;13.02;;
63693;SDS011;49839;51.798;10.954;2024-03-02T03:14:59;21.40;;;12.63;;
63693;SDS011;49839;51.798;10.954;2024-03-02T03:17:27;19.40;;;12.70;;
63693;SDS011;49839;51.798;10.954;2024-03-02T03:19:54;22.13;;;12.95;;
63693;SDS011;49839;51.798;10.954;2024-03-02T03:22:22;22.67;;;13.18;;
63693;SDS011;49839;51.798;10.954;2024-03-02T03:24:49;20.75;;;12.52;;
63693;SDS011;49839;51.798;10.954;2024-03-02T03:27:18;22.58;;;12.57;;
63693;SDS011;49839;51.798;10.954;2024-03-02T03:29:46;21.25;;;12.68;;
63693;SDS011;49839;51.798;10.954;2024-03-02T03:32:14;22.70;;;12.40;;
63693;SDS011;49839;51.798;10.954;2024-03-02T03:34:44;23.17;;;13.65;;
63693;SDS011;49839;51.798;10.954;2024-03-02T03:37:11;24.05;;;12.75;;
63693;SDS011;49839;51.798;10.954;2024-03-02T03:39:39;21.70;;;12.98;;
63693;SDS011;49839;51.798;10.954;2024-03-02T03:42:06;23.45;;;12.82;;
63693;SDS011;49839;51.798;10.954;2024-03-02T03:44:34;20.48;;;12.57;;
63693;SDS011;49839;51.798;10.954;2024-03-02T03:47:01;21.00;;;12.43;;
63693;SDS011;49839;51.798;10.954;2024-03-02T03:49:30;22.83;;;12.57;;
63693;SDS011;49839;51.798;10.954;2024-03-02T03:51:58;22.20;;;12.98;;
63693;SDS011;49839;51.798;10.954;2024-03-02T03:54:25;20.30;;;12.38;;
63693;SDS011;49839;51.798;10.954;2024-03-02T03:56:53;23.25;;;12.60;;
63693;SDS011;49839;51.798;10.954;2024-03-02T03:59:20;24.50;;;14.10;;
63693;SDS011;49839;51.798;10.954;2024-03-02T04:01:48;22.90;;;13.23;;
63693;SDS011;49839;51.798;10.954;2024-03-02T04:04:15;23.17;;;12.35;;
63693;SDS011;49839;51.798;10.954;2024-03-02T04:06:44;27.77;;;14.10;;
63693;SDS011;49839;51.798;10.954;2024-03-02T04:09:12;24.25;;;13.32;;
63693;SDS011;49839;51.798;10.954;2024-03-02T04:11:39;22.52;;;13.43;;
63693;SDS011;49839;51.798;10.954;2024-03-02T04:14:07;21.23;;;12.43;;
63693;SDS011;49839;51.798;10.954;2024-03-02T04:16:34;23.42;;;13.55;;
63693;SDS011;49839;51.798;10.954;2024-03-02T04:19:02;22.60;;;12.93;;
63693;SDS011;49839;51.798;10.954;2024-03-02T04:21:31;24.48;;;13.63;;
63693;SDS011;49839;51.798;10.954;2024-03-02T04:24:00;19.73;;;12.45;;
63693;SDS011;49839;51.798;10.954;2024-03-02T04:26:27;19.92;;;12.27;;
63693;SDS011;49839;51.798;10.954;2024-03-02T04:28:55;23.90;;;12.77;;
63693;SDS011;49839;51.798;10.954;2024-03-02T04:31:22;22.00;;;13.30;;
63693;SDS011;49839;51.798;10.954;2024-03-02T04:33:49;23.45;;;13.00;;
63693;SDS011;49839;51.798;10.954;2024-03-02T04:36:17;23.10;;;13.15;;
63693;SDS011;49839;51.798;10.954;2024-03-02T04:38:44;22.92;;;13.88;;
63693;SDS011;49839;51.798;10.954;2024-03-02T04:41:13;22.67;;;12.23;;
63693;SDS011;49839;51.798;10.954;2024-03-02T04:43:41;23.38;;;12.98;;
63693;SDS011;49839;51.798;10.954;2024-03-02T04:46:08;21.95;;;12.23;;
63693;SDS011;49839;51.798;10.954;2024-03-02T04:48:36;20.63;;;12.20;;
63693;SDS011;49839;51.798;10.954;2024-03-02T04:51:03;23.33;;;12.98;;
63693;SDS011;49839;51.798;10.954;2024-03-02T04:53:31;22.35;;;12.57;;
63693;SDS011;49839;51.798;10.954;2024-03-02T04:55:58;23.10;;;12.75;;
63693;SDS011;49839;51.798;10.954;2024-03-02T04:58:48;24.58;;;13.88;;
63693;SDS011;49839;51.798;10.954;2024-03-02T05:01:18;24.30;;;14.10;;
63693;SDS011;49839;51.798;10.954;2024-03-02T05:03:45;23.95;;;13.85;;
63693;SDS011;49839;51.798;10.954;2024-03-02T05:06:13;22.80;;;13.60;;
63693;SDS011;49839;51.798;10.954;2024-03-02T05:08:40;22.27;;;13.68;;
63693;SDS011;49839;51.798;10.954;2024-03-02T05:11:08;22.27;;;13.20;;
63693;SDS011;49839;51.798;10.954;2024-03-02T05:13:53;21.70;;;12.85;;
63693;SDS011;49839;51.798;10.954;2024-03-02T05:16:21;20.85;;;12.52;;
63693;SDS011;49839;51.798;10.954;2024-03-02T05:18:48;20.88;;;11.70;;
63693;SDS011;49839;51.798;10.954;2024-03-02T05:21:16;22.58;;;13.02;;
63693;SDS011;49839;51.798;10.954;2024-03-02T05:23:43;21.17;;;12.82;;
63693;SDS011;49839;51.798;10.954;2024-03-02T05:26:11;22.35;;;13.38;;
63693;SDS011;49839;51.798;10.954;2024-03-02T05:28:39;21.85;;;13.23;;
63693;SDS011;49839;51.798;10.954;2024-03-02T05:31:09;23.30;;;14.00;;
63693;SDS011;49839;51.798;10.954;2024-03-02T05:33:37;27.67;;;14.32;;
63693;SDS011;49839;51.798;10.954;2024-03-02T05:36:05;24.15;;;13.55;;
63693;SDS011;49839;51.798;10.954;2024-03-02T05:38:34;24.42;;;14.27;;
63693;SDS011;49839;51.798;10.954;2024-03-02T05:41:02;23.58;;;13.43;;
63693;SDS011;49839;51.798;10.954;2024-03-02T05:43:29;24.23;;;13.90;;
63693;SDS011;49839;51.798;10.954;2024-03-02T05:45:56;23.80;;;14.02;;
63693;SDS011;49839;51.798;10.954;2024-03-02T05:48:25;23.83;;;13.77;;
63693;SDS011;49839;51.798;10.954;2024-03-02T05:50:53;24.30;;;13.90;;
63693;SDS011;49839;51.798;10.954;2024-03-02T05:53:20;22.30;;;13.30;;
63693;SDS011;49839;51.798;10.954;2024-03-02T05:55:48;22.30;;;13.20;;
63693;SDS011;49839;51.798;10.954;2024-03-02T05:58:19;25.55;;;14.18;;
63693;SDS011;49839;51.798;10.954;2024-03-02T06:00:58;24.02;;;13.85;;
63693;SDS011;49839;51.798;10.954;2024-03-02T06:03:27;22.05;;;12.73;;
63693;SDS011;49839;51.798;10.954;2024-03-02T06:05:55;23.13;;;13.98;;
63693;SDS011;49839;51.798;10.954;2024-03-02T06:08:23;22.17;;;13.80;;
63693;SDS011;49839;51.798;10.954;2024-03-02T06:10:50;24.60;;;15.50;;
63693;SDS011;49839;51.798;10.954;2024-03-02T06:13:17;25.60;;;15.25;;
63693;SDS011;49839;51.798;10.954;2024-03-02T06:15:45;26.92;;;15.05;;
63693;SDS011;49839;51.798;10.954;2024-03-02T06:18:12;23.45;;;14.48;;
63693;SDS011;49839;51.798;10.954;2024-03-02T06:20:41;20.95;;;13.40;;
63693;SDS011;49839;51.798;10.954;2024-03-02T06:23:09;23.08;;;12.82;;
63693;SDS011;49839;51.798;10.954;2024-03-02T06:25:36;21.10;;;13.43;;
63693;SDS011;49839;51.798;10.954;2024-03-02T06:28:04;22.50;;;12.80;;
63693;SDS011;49839;51.798;10.954;2024-03-02T06:30:31;24.70;;;13.55;;
63693;SDS011;49839;51.798;10.954;2024-03-02T06:32:59;24.38;;;14.02;;
63693;SDS011;49839;51.798;10.954;2024-03-02T06:35:26;24.73;;;13.55;;
63693;SDS011;49839;51.798;10.954;2024-03-02T06:37:55;20.70;;;12.95;;
63693;SDS011;49839;51.798;10.954;2024-03-02T06:40:22;23.30;;;13.88;;
63693;SDS011;49839;51.798;10.954;2024-03-02T06:42:50;24.48;;;14.10;;
63693;SDS011;49839;51.798;10.954;2024-03-02T06:45:17;25.40;;;14.63;;
63693;SDS011;49839;51.798;10.954;2024-03-02T06:47:45;24.73;;;14.73;;
63693;SDS011;49839;51.798;10.954;2024-03-02T06:50:12;21.60;;;12.80;;
63693;SDS011;49839;51.798;10.954;2024-03-02T06:52:40;24.13;;;14.48;;
63693;SDS011;49839;51.798;10.954;2024-03-02T06:55:09;23.65;;;14.13;;
63693;SDS011;49839;51.798;10.954;2024-03-02T06:57:37;25.17;;;13.80;;
63693;SDS011;49839;51.798;10.954;2024-03-02T07:00:05;25.08;;;13.98;;
63693;SDS011;49839;51.798;10.954;2024-03-02T07:02:35;25.30;;;14.68;;
63693;SDS011;49839;51.798;10.954;2024-03-02T07:05:03;22.67;;;13.73;;
63693;SDS011;49839;51.798;10.954;2024-03-02T07:07:31;23.58;;;14.18;;
63693;SDS011;49839;51.798;10.954;2024-03-02T07:09:58;28.92;;;15.65;;
63693;SDS011;49839;51.798;10.954;2024-03-02T07:12:27;24.63;;;13.70;;
63693;SDS011;49839;51.798;10.954;2024-03-02T07:14:55;22.70;;;14.20;;
63693;SDS011;49839;51.798;10.954;2024-03-02T07:17:51;23.33;;;14.10;;
63693;SDS011;49839;51.798;10.954;2024-03-02T07:20:18;22.38;;;13.85;;
63693;SDS011;49839;51.798;10.954;2024-03-02T07:22:46;22.33;;;14.20;;
63693;SDS011;49839;51.798;10.954;2024-03-02T07:25:13;25.80;;;15.43;;
63693;SDS011;49839;51.798;10.954;2024-03-02T07:27:45;24.33;;;14.20;;
63693;SDS011;49839;51.798;10.954;2024-03-02T07:30:13;24.80;;;14.53;;
63693;SDS011;49839;51.798;10.954;2024-03-02T07:32:42;23.10;;;13.77;;
63693;SDS011;49839;51.798;10.954;2024-03-02T07:35:12;23.67;;;14.18;;
63693;SDS011;49839;51.798;10.954;2024-03-02T07:37:40;24.50;;;14.23;;
63693;SDS011;49839;51.798;10.954;2024-03-02T07:40:09;23.23;;;14.00;;
63693;SDS011;49839;51.798;10.954;2024-03-02T07:42:37;25.17;;;13.67;;
63693;SDS011;49839;51.798;10.954;2024-03-02T07:45:07;24.02;;;13.70;;
63693;SDS011;49839;51.798;10.954;2024-03-02T07:47:35;21.67;;;12.45;;
63693;SDS011;49839;51.798;10.954;2024-03-02T07:50:02;19.23;;;12.13;;
63693;SDS011;49839;51.798;10.954;2024-03-02T07:55:00;23.25;;;11.63;;
63693;SDS011;49839;51.798;10.954;2024-03-02T07:57:27;20.25;;;11.60;;
63693;SDS011;49839;51.798;10.954;2024-03-02T07:59:55;22.42;;;13.00;;
63693;SDS011;49839;51.798;10.954;2024-03-02T08:02:23;22.65;;;12.95;;
63693;SDS011;49839;51.798;10.954;2024-03-02T08:04:51;22.35;;;12.93;;
63693;SDS011;49839;51.798;10.954;2024-03-02T08:07:18;22.33;;;12.75;;
63693;SDS011;49839;51.798;10.954;2024-03-02T08:09:46;24.90;;;14.98;;
63693;SDS011;49839;51.798;10.954;2024-03-02T08:12:13;22.67;;;13.63;;
63693;SDS011;49839;51.798;10.954;2024-03-02T08:14:41;25.17;;;14.25;;
63693;SDS011;49839;51.798;10.954;2024-03-02T08:17:08;20.27;;;12.85;;
63693;SDS011;49839;51.798;10.954;2024-03-02T08:19:38;23.33;;;14.93;;
63693;SDS011;49839;51.798;10.954;2024-03-02T08:22:06;22.40;;;14.47;;
63693;SDS011;49839;51.798;10.954;2024-03-02T08:24:34;22.15;;;13.73;;
63693;SDS011;49839;51.798;10.954;2024-03-02T08:27:02;23.98;;;14.88;;
63693;SDS011;49839;51.798;10.954;2024-03-02T08:29:29;19.52;;;12.20;;
63693;SDS011;49839;51.798;10.954;2024-03-02T08:31:57;20.13;;;12.45;;
63693;SDS011;49839;51.798;10.954;2024-03-02T08:34:25;19.95;;;11.20;;
63693;SDS011;49839;51.798;10.954;2024-03-02T08:36:53;18.90;;;11.40;;
63693;SDS011;49839;51.798;10.954;2024-03-02T08:39:21;18.00;;;11.80;;
63693;SDS011;49839;51.798;10.954;2024-03-02T08:41:48;17.23;;;10.73;;
63693;SDS011;49839;51.798;10.954;2024-03-02T08:44:16;19.45;;;11.45;;
63693;SDS011;49839;51.798;10.954;2024-03-02T08:46:44;18.52;;;10.98;;
63693;SDS011;49839;51.798;10.954;2024-03-02T08:49:11;17.73;;;10.63;;
63693;SDS011;49839;51.798;10.954;2024-03-02T08:51:39;17.88;;;11.00;;
63693;SDS011;49839;51.798;10.954;2024-03-02T08:54:08;16.90;;;10.35;;
63693;SDS011;49839;51.798;10.954;2024-03-02T08:56:35;17.63;;;11.17;;
63693;SDS011;49839;51.798;10.954;2024-03-02T08:59:03;16.52;;;10.63;;
63693;SDS011;49839;51.798;10.954;2024-03-02T09:01:30;16.13;;;10.73;;
63693;SDS011;49839;51.798;10.954;2024-03-02T09:03:58;16.08;;;9.80;;
63693;SDS011;49839;51.798;10.954;2024-03-02T09:06:26;16.05;;;9.80;;
63693;SDS011;49839;51.798;10.954;2024-03-02T09:08:53;16.92;;;11.63;;
63693;SDS011;49839;51.798;10.954;2024-03-02T09:11:22;19.17;;;12.13;;
63693;SDS011;49839;51.798;10.954;2024-03-02T09:13:50;17.27;;;11.80;;
63693;SDS011;49839;51.798;10.954;2024-03-02T09:16:17;17.08;;;10.90;;
63693;SDS011;49839;51.798;10.954;2024-03-02T09:18:45;15.75;;;10.43;;
63693;SDS011;49839;51.798;10.954;2024-03-02T09:21:12;21.17;;;11.45;;
63693;SDS011;49839;51.798;10.954;2024-03-02T09:23:39;14.32;;;10.10;;
63693;SDS011;49839;51.798;10.954;2024-03-02T09:26:07;18.92;;;10.95;;
63693;SDS011;49839;51.798;10.954;2024-03-02T09:28:36;16.98;;;11.27;;
63693;SDS011;49839;51.798;10.954;2024-03-02T09:31:03;12.55;;;6.97;;
63693;SDS011;49839;51.798;10.954;2024-03-02T09:33:30;10.90;;;7.78;;
63693;SDS011;49839;51.798;10.954;2024-03-02T09:35:58;12.52;;;7.38;;
63693;SDS011;49839;51.798;10.954;2024-03-02T09:38:25;13.77;;;10.05;;
63693;SDS011;49839;51.798;10.954;2024-03-02T09:40:53;16.95;;;10.32;;
63693;SDS011;49839;51.798;10.954;2024-03-02T09:43:20;50.85;;;40.80;;
63693;SDS011;49839;51.798;10.954;2024-03-02T09:45:50;14.95;;;11.40;;
63693;SDS011;49839;51.798;10.954;2024-03-02T09:48:18;10.43;;;6.28;;
63693;SDS011;49839;51.798;10.954;2024-03-02T09:50:46;12.80;;;7.35;;
63693;SDS011;49839;51.798;10.954;2024-03-02T09:53:14;10.63;;;7.03;;
63693;SDS011;49839;51.798;10.954;2024-03-02T09:55:45;10.48;;;6.22;;
63693;SDS011;49839;51.798;10.954;2024-03-02T09:58:12;8.95;;;5.80;;
63693;SDS011;49839;51.798;10.954;2024-03-02T10:00:40;9.77;;;6.32;;
63693;SDS011;49839;51.798;10.954;2024-03-02T10:03:13;13.27;;;6.40;;
63693;SDS011;49839;51.798;10.954;2024-03-02T10:05:40;13.90;;;8.35;;
63693;SDS011;49839;51.798;10.954;2024-03-02T10:08:08;10.32;;;5.55;;
63693;SDS011;49839;51.798;10.954;2024-03-02T10:10:36;11.40;;;7.07;;
63693;SDS011;49839;51.798;10.954;2024-03-02T10:13:06;9.35;;;6.10;;
63693;SDS011;49839;51.798;10.954;2024-03-02T10:15:35;9.23;;;6.00;;
63693;SDS011;49839;51.798;10.954;2024-03-02T10:18:03;10.53;;;6.60;;
63693;SDS011;49839;51.798;10.954;2024-03-02T10:20:32;11.55;;;6.78;;
63693;SDS011;49839;51.798;10.954;2024-03-02T10:23:09;12.82;;;6.03;;
63693;SDS011;49839;51.798;10.954;2024-03-02T10:25:36;11.27;;;6.20;;
63693;SDS011;49839;51.798;10.954;2024-03-02T10:28:16;10.40;;;5.57;;
63693;SDS011;49839;51.798;10.954;2024-03-02T10:30:44;9.73;;;6.07;;
63693;SDS011;49839;51.798;10.954;2024-03-02T10:33:14;9.48;;;5.45;;
63693;SDS011;49839;51.798;10.954;2024-03-02T10:35:43;9.57;;;5.20;;
63693;SDS011;49839;51.798;10.954;2024-03-02T10:38:11;8.38;;;4.50;;
63693;SDS011;49839;51.798;10.954;2024-03-02T10:40:38;8.32;;;4.63;;
63693;SDS011;49839;51.798;10.954;2024-03-02T10:43:06;8.43;;;4.40;;
63693;SDS011;49839;51.798;10.954;2024-03-02T10:45:34;8.23;;;4.93;;
63693;SDS011;49839;51.798;10.954;2024-03-02T10:48:02;10.32;;;5.07;;
63693;SDS011;49839;51.798;10.954;2024-03-02T10:50:31;9.07;;;4.80;;
63693;SDS011;49839;51.798;10.954;2024-03-02T10:53:00;8.73;;;5.25;;
63693;SDS011;49839;51.798;10.954;2024-03-02T10:55:27;8.75;;;4.78;;
63693;SDS011;49839;51.798;10.954;2024-03-02T10:57:55;10.73;;;4.93;;
63693;SDS011;49839;51.798;10.954;2024-03-02T11:00:25;8.70;;;4.65;;
63693;SDS011;49839;51.798;10.954;2024-03-02T11:02:57;9.10;;;4.70;;
63693;SDS011;49839;51.798;10.954;2024-03-02T11:05:26;8.52;;;4.45;;
63693;SDS011;49839;51.798;10.954;2024-03-02T11:10:23;7.57;;;4.13;;
63693;SDS011;49839;51.798;10.954;2024-03-02T11:12:52;8.18;;;4.43;;
63693;SDS011;49839;51.798;10.954;2024-03-02T11:15:21;8.57;;;3.88;;
63693;SDS011;49839;51.798;10.954;2024-03-02T11:17:52;7.55;;;4.10;;
63693;SDS011;49839;51.798;10.954;2024-03-02T11:20:19;8.02;;;4.38;;
63693;SDS011;49839;51.798;10.954;2024-03-02T11:22:47;9.98;;;4.60;;
63693;SDS011;49839;51.798;10.954;2024-03-02T11:25:26;7.68;;;3.53;;
63693;SDS011;49839;51.798;10.954;2024-03-02T11:28:00;8.60;;;4.50;;
63693;SDS011;49839;51.798;10.954;2024-03-02T11:33:14;7.25;;;3.90;;
63693;SDS011;49839;51.798;10.954;2024-03-02T11:35:43;6.40;;;3.33;;
63693;SDS011;49839;51.798;10.954;2024-03-02T11:38:13;5.78;;;3.20;;
63693;SDS011;49839;51.798;10.954;2024-03-02T11:40:42;7.55;;;3.30;;
63693;SDS011;49839;51.798;10.954;2024-03-02T11:45:37;7.47;;;3.55;;
63693;SDS011;49839;51.798;10.954;2024-03-02T11:48:07;7.18;;;3.55;;
63693;SDS011;49839;51.798;10.954;2024-03-02T11:50:40;7.00;;;3.45;;
63693;SDS011;49839;51.798;10.954;2024-03-02T11:55:35;9.52;;;3.90;;
63693;SDS011;49839;51.798;10.954;2024-03-02T11:58:04;9.30;;;4.00;;
63693;SDS011;49839;51.798;10.954;2024-03-02T12:00:32;6.30;;;3.13;;
63693;SDS011;49839;51.798;10.954;2024-03-02T12:03:00;7.75;;;3.30;;
63693;SDS011;49839;51.798;10.954;2024-03-02T12:05:27;8.27;;;3.85;;
63693;SDS011;49839;51.798;10.954;2024-03-02T12:07:56;6.78;;;3.78;;
63693;SDS011;49839;51.798;10.954;2024-03-02T12:10:23;7.78;;;4.07;;
63693;SDS011;49839;51.798;10.954;2024-03-02T12:12:57;9.07;;;4.50;;
63693;SDS011;49839;51.798;10.954;2024-03-02T12:15:27;7.88;;;4.38;;
63693;SDS011;49839;51.798;10.954;2024-03-02T12:17:55;12.48;;;6.22;;
63693;SDS011;49839;51.798;10.954;2024-03-02T12:20:23;8.13;;;4.50;;
63693;SDS011;49839;51.798;10.954;2024-03-02T12:22:51;9.52;;;4.43;;
63693;SDS011;49839;51.798;10.954;2024-03-02T12:25:19;9.47;;;4.23;;
63693;SDS011;49839;51.798;10.954;2024-03-02T12:27:47;34.17;;;26.33;;
63693;SDS011;49839;51.798;10.954;2024-03-02T12:30:16;12.68;;;8.48;;
63693;SDS011;49839;51.798;10.954;2024-03-02T12:32:45;8.65;;;4.15;;
63693;SDS011;49839;51.798;10.954;2024-03-02T12:35:13;7.38;;;3.50;;
63693;SDS011;49839;51.798;10.954;2024-03-02T12:37:43;7.65;;;3.35;;
63693;SDS011;49839;51.798;10.954;2024-03-02T12:40:11;7.22;;;3.42;;
63693;SDS011;49839;51.798;10.954;2024-03-02T12:42:39;9.10;;;2.70;;
63693;SDS011;49839;51.798;10.954;2024-03-02T12:45:08;5.85;;;2.25;;
63693;SDS011;49839;51.798;10.954;2024-03-02T12:47:36;5.63;;;2.50;;
63693;SDS011;49839;51.798;10.954;2024-03-02T12:50:05;6.38;;;2.08;;
63693;SDS011;49839;51.798;10.954;2024-03-02T12:52:33;5.53;;;2.13;;
63693;SDS011;49839;51.798;10.954;2024-03-02T12:55:01;5.22;;;2.22;;
63693;SDS011;49839;51.798;10.954;2024-03-02T12:57:30;5.80;;;2.13;;
63693;SDS011;49839;51.798;10.954;2024-03-02T12:59:58;7.50;;;2.50;;
63693;SDS011;49839;51.798;10.954;2024-03-02T13:02:27;4.95;;;2.40;;
63693;SDS011;49839;51.798;10.954;2024-03-02T13:04:55;6.28;;;2.60;;
63693;SDS011;49839;51.798;10.954;2024-03-02T13:07:23;5.72;;;1.75;;
63693;SDS011;49839;51.798;10.954;2024-03-02T13:09:51;4.30;;;1.90;;
63693;SDS011;49839;51.798;10.954;2024-03-02T13:12:19;6.38;;;2.10;;
63693;SDS011;49839;51.798;10.954;2024-03-02T13:14:47;6.75;;;2.28;;
63693;SDS011;49839;51.798;10.954;2024-03-02T13:17:15;5.90;;;1.90;;
63693;SDS011;49839;51.798;10.954;2024-03-02T13:19:43;5.55;;;1.90;;
63693;SDS011;49839;51.798;10.954;2024-03-02T13:22:10;6.05;;;2.55;;
63693;SDS011;49839;51.798;10.954;2024-03-02T13:24:39;5.15;;;2.53;;
63693;SDS011;49839;51.798;10.954;2024-03-02T13:27:08;4.30;;;1.88;;
63693;SDS011;49839;51.798;10.954;2024-03-02T13:29:36;7.97;;;2.40;;
63693;SDS011;49839;51.798;10.954;2024-03-02T13:32:04;5.22;;;2.40;;
63693;SDS011;49839;51.798;10.954;2024-03-02T13:34:31;5.05;;;2.35;;
63693;SDS011;49839;51.798;10.954;2024-03-02T13:36:59;20.23;;;12.18;;
63693;SDS011;49839;51.798;10.954;2024-03-02T13:39:28;4.07;;;1.60;;
63693;SDS011;49839;51.798;10.954;2024-03-02T13:41:58;6.47;;;1.60;;
63693;SDS011;49839;51.798;10.954;2024-03-02T13:44:30;7.05;;;2.25;;
63693;SDS011;49839;51.798;10.954;2024-03-02T13:46:59;4.20;;;1.80;;
63693;SDS011;49839;51.798;10.954;2024-03-02T13:49:26;4.80;;;1.80;;
63693;SDS011;49839;51.798;10.954;2024-03-02T13:52:02;3.53;;;1.60;;
63693;SDS011;49839;51.798;10.954;2024-03-02T13:54:37;4.57;;;1.80;;
63693;SDS011;49839;51.798;10.954;2024-03-02T13:57:06;6.93;;;2.10;;
63693;SDS011;49839;51.798;10.954;2024-03-02T14:02:01;5.00;;;1.98;;
63693;SDS011;49839;51.798;10.954;2024-03-02T14:04:30;4.05;;;2.10;;
63693;SDS011;49839;51.798;10.954;2024-03-02T14:06:58;6.43;;;2.00;;
63693;SDS011;49839;51.798;10.954;2024-03-02T14:09:25;4.97;;;1.92;;
63693;SDS011;49839;51.798;10.954;2024-03-02T14:11:53;6.80;;;3.42;;
63693;SDS011;49839;51.798;10.954;2024-03-02T14:14:23;10.20;;;3.88;;
63693;SDS011;49839;51.798;10.954;2024-03-02T14:16:50;8.80;;;3.72;;
63693;SDS011;49839;51.798;10.954;2024-03-02T14:19:18;7.65;;;3.35;;
63693;SDS011;49839;51.798;10.954;2024-03-02T14:21:46;10.88;;;5.20;;
63693;SDS011;49839;51.798;10.954;2024-03-02T14:24:13;13.93;;;6.97;;
63693;SDS011;49839;51.798;10.954;2024-03-02T14:26:41;9.10;;;4.15;;
63693;SDS011;49839;51.798;10.954;2024-03-02T14:29:08;7.68;;;3.72;;
63693;SDS011;49839;51.798;10.954;2024-03-02T14:31:37;9.30;;;4.57;;
63693;SDS011;49839;51.798;10.954;2024-03-02T14:34:04;6.53;;;3.73;;
63693;SDS011;49839;51.798;10.954;2024-03-02T14:36:32;6.00;;;3.35;;
63693;SDS011;49839;51.798;10.954;2024-03-02T14:39:00;9.02;;;3.30;;